sensor_id;sensor_type;location;lat;lon;timestamp;P1;durP1;ratioP1;P2;durP2;ratioP2
36923;SDS011;22841;50.252;18.688;2022-08-21T00:00:58;37.72;;;21.20;;
36923;SDS011;22841;50.252;18.688;2022-08-21T00:03:27;33.67;;;20.88;;
36923;SDS011;22841;50.252;18.688;2022-08-21T00:05:53;35.42;;;20.38;;
36923;SDS011;22841;50.252;18.688;2022-08-21T00:08:20;30.85;;;18.50;;
36923;SDS011;22841;50.252;18.688;2022-08-21T00:10:46;22.77;;;16.58;;
36923;SDS011;22841;50.252;18.688;2022-08-21T00:13:13;34.75;;;17.08;;
36923;SDS011;22841;50.252;18.688;2022-08-21T00:15:40;33.13;;;16.20;;
36923;SDS011;22841;50.252;18.688;2022-08-21T00:18:08;35.80;;;17.27;;
36923;SDS011;22841;50.252;18.688;2022-08-21T00:20:36;22.27;;;14.15;;
36923;SDS011;22841;50.252;18.688;2022-08-21T00:23:03;20.23;;;13.82;;
36923;SDS011;22841;50.252;18.688;2022-08-21T00:25:30;20.45;;;13.75;;
36923;SDS011;22841;50.252;18.688;2022-08-21T00:27:56;18.33;;;12.43;;
36923;SDS011;22841;50.252;18.688;2022-08-21T00:30:23;17.42;;;10.55;;
36923;SDS011;22841;50.252;18.688;2022-08-21T00:32:52;16.42;;;9.70;;
36923;SDS011;22841;50.252;18.688;2022-08-21T00:35:21;17.25;;;10.85;;
36923;SDS011;22841;50.252;18.688;2022-08-21T00:40:18;16.90;;;10.60;;
36923;SDS011;22841;50.252;18.688;2022-08-21T00:42:49;25.05;;;11.30;;
36923;SDS011;22841;50.252;18.688;2022-08-21T00:45:15;21.67;;;10.95;;
36923;SDS011;22841;50.252;18.688;2022-08-21T00:47:41;21.63;;;11.98;;
36923;SDS011;22841;50.252;18.688;2022-08-21T00:50:09;18.42;;;12.07;;
36923;SDS011;22841;50.252;18.688;2022-08-21T00:52:45;19.10;;;11.43;;
36923;SDS011;22841;50.252;18.688;2022-08-21T00:55:12;14.95;;;11.57;;
36923;SDS011;22841;50.252;18.688;2022-08-21T00:57:47;21.90;;;10.68;;
36923;SDS011;22841;50.252;18.688;2022-08-21T01:00:25;20.50;;;11.82;;
36923;SDS011;22841;50.252;18.688;2022-08-21T01:02:54;18.35;;;10.90;;
36923;SDS011;22841;50.252;18.688;2022-08-21T01:05:21;20.80;;;10.50;;
36923;SDS011;22841;50.252;18.688;2022-08-21T01:07:48;24.77;;;9.35;;
36923;SDS011;22841;50.252;18.688;2022-08-21T01:10:14;17.58;;;8.60;;
36923;SDS011;22841;50.252;18.688;2022-08-21T01:12:40;13.98;;;8.55;;
36923;SDS011;22841;50.252;18.688;2022-08-21T01:15:10;12.43;;;8.00;;
36923;SDS011;22841;50.252;18.688;2022-08-21T01:17:40;13.50;;;8.40;;
36923;SDS011;22841;50.252;18.688;2022-08-21T01:20:07;15.13;;;8.98;;
36923;SDS011;22841;50.252;18.688;2022-08-21T01:22:35;20.20;;;8.57;;
36923;SDS011;22841;50.252;18.688;2022-08-21T01:25:03;12.40;;;8.55;;
36923;SDS011;22841;50.252;18.688;2022-08-21T01:27:30;12.77;;;8.75;;
36923;SDS011;22841;50.252;18.688;2022-08-21T01:29:59;18.38;;;8.40;;
36923;SDS011;22841;50.252;18.688;2022-08-21T01:32:33;20.73;;;8.43;;
36923;SDS011;22841;50.252;18.688;2022-08-21T01:34:59;14.43;;;7.93;;
36923;SDS011;22841;50.252;18.688;2022-08-21T01:37:25;11.88;;;8.55;;
36923;SDS011;22841;50.252;18.688;2022-08-21T01:39:51;15.85;;;7.60;;
36923;SDS011;22841;50.252;18.688;2022-08-21T01:42:17;17.05;;;8.63;;
36923;SDS011;22841;50.252;18.688;2022-08-21T01:44:43;11.68;;;7.15;;
36923;SDS011;22841;50.252;18.688;2022-08-21T01:47:11;11.23;;;7.10;;
36923;SDS011;22841;50.252;18.688;2022-08-21T01:49:39;12.90;;;7.18;;
36923;SDS011;22841;50.252;18.688;2022-08-21T01:52:07;12.18;;;6.43;;
36923;SDS011;22841;50.252;18.688;2022-08-21T01:54:34;9.43;;;6.53;;
36923;SDS011;22841;50.252;18.688;2022-08-21T01:57:01;12.32;;;6.70;;
36923;SDS011;22841;50.252;18.688;2022-08-21T01:59:28;11.77;;;6.53;;
36923;SDS011;22841;50.252;18.688;2022-08-21T02:01:54;10.20;;;5.50;;
36923;SDS011;22841;50.252;18.688;2022-08-21T02:04:20;6.93;;;4.63;;
36923;SDS011;22841;50.252;18.688;2022-08-21T02:06:47;10.40;;;5.63;;
36923;SDS011;22841;50.252;18.688;2022-08-21T02:09:14;11.02;;;5.20;;
36923;SDS011;22841;50.252;18.688;2022-08-21T02:11:40;11.13;;;4.93;;
36923;SDS011;22841;50.252;18.688;2022-08-21T02:14:08;6.70;;;4.68;;
36923;SDS011;22841;50.252;18.688;2022-08-21T02:16:34;6.45;;;4.82;;
36923;SDS011;22841;50.252;18.688;2022-08-21T02:19:01;6.60;;;4.63;;
36923;SDS011;22841;50.252;18.688;2022-08-21T02:21:28;8.05;;;4.90;;
36923;SDS011;22841;50.252;18.688;2022-08-21T02:23:54;8.50;;;5.10;;
36923;SDS011;22841;50.252;18.688;2022-08-21T02:26:21;11.18;;;5.18;;
36923;SDS011;22841;50.252;18.688;2022-08-21T02:28:48;7.70;;;5.32;;
36923;SDS011;22841;50.252;18.688;2022-08-21T02:31:14;6.50;;;5.53;;
36923;SDS011;22841;50.252;18.688;2022-08-21T02:33:40;11.45;;;5.82;;
36923;SDS011;22841;50.252;18.688;2022-08-21T02:36:07;7.70;;;6.18;;
36923;SDS011;22841;50.252;18.688;2022-08-21T02:38:34;8.70;;;5.63;;
36923;SDS011;22841;50.252;18.688;2022-08-21T02:41:05;6.57;;;5.28;;
36923;SDS011;22841;50.252;18.688;2022-08-21T02:43:38;8.80;;;5.53;;
36923;SDS011;22841;50.252;18.688;2022-08-21T02:46:04;7.25;;;5.90;;
36923;SDS011;22841;50.252;18.688;2022-08-21T02:48:32;10.57;;;6.05;;
36923;SDS011;22841;50.252;18.688;2022-08-21T02:51:00;9.60;;;5.57;;
36923;SDS011;22841;50.252;18.688;2022-08-21T02:53:29;10.15;;;5.63;;
36923;SDS011;22841;50.252;18.688;2022-08-21T02:55:56;10.48;;;5.90;;
36923;SDS011;22841;50.252;18.688;2022-08-21T02:58:25;10.38;;;6.85;;
36923;SDS011;22841;50.252;18.688;2022-08-21T03:00:57;9.90;;;6.13;;
36923;SDS011;22841;50.252;18.688;2022-08-21T03:03:23;12.70;;;6.63;;
36923;SDS011;22841;50.252;18.688;2022-08-21T03:05:50;10.93;;;6.93;;
36923;SDS011;22841;50.252;18.688;2022-08-21T03:08:17;11.65;;;6.65;;
36923;SDS011;22841;50.252;18.688;2022-08-21T03:10:45;12.60;;;6.40;;
36923;SDS011;22841;50.252;18.688;2022-08-21T03:13:13;12.65;;;6.75;;
36923;SDS011;22841;50.252;18.688;2022-08-21T03:15:40;11.35;;;6.82;;
36923;SDS011;22841;50.252;18.688;2022-08-21T03:18:07;12.27;;;7.50;;
36923;SDS011;22841;50.252;18.688;2022-08-21T03:20:35;10.75;;;7.05;;
36923;SDS011;22841;50.252;18.688;2022-08-21T03:23:02;11.38;;;8.07;;
36923;SDS011;22841;50.252;18.688;2022-08-21T03:25:30;11.05;;;7.97;;
36923;SDS011;22841;50.252;18.688;2022-08-21T03:27:59;12.48;;;7.60;;
36923;SDS011;22841;50.252;18.688;2022-08-21T03:30:30;9.15;;;7.57;;
36923;SDS011;22841;50.252;18.688;2022-08-21T03:32:57;13.40;;;8.45;;
36923;SDS011;22841;50.252;18.688;2022-08-21T03:35:24;23.73;;;9.45;;
36923;SDS011;22841;50.252;18.688;2022-08-21T03:37:51;22.13;;;11.13;;
36923;SDS011;22841;50.252;18.688;2022-08-21T03:40:18;17.33;;;9.40;;
36923;SDS011;22841;50.252;18.688;2022-08-21T03:42:45;14.20;;;9.45;;
36923;SDS011;22841;50.252;18.688;2022-08-21T03:45:14;17.60;;;11.00;;
36923;SDS011;22841;50.252;18.688;2022-08-21T03:47:56;18.67;;;10.45;;
36923;SDS011;22841;50.252;18.688;2022-08-21T03:50:25;17.38;;;10.45;;
36923;SDS011;22841;50.252;18.688;2022-08-21T03:52:54;18.33;;;10.00;;
36923;SDS011;22841;50.252;18.688;2022-08-21T03:55:20;20.83;;;10.98;;
36923;SDS011;22841;50.252;18.688;2022-08-21T03:57:46;21.35;;;11.45;;
36923;SDS011;22841;50.252;18.688;2022-08-21T04:00:13;28.70;;;12.68;;
36923;SDS011;22841;50.252;18.688;2022-08-21T04:02:40;17.67;;;12.05;;
36923;SDS011;22841;50.252;18.688;2022-08-21T04:05:08;24.30;;;14.32;;
36923;SDS011;22841;50.252;18.688;2022-08-21T04:07:35;22.55;;;14.05;;
36923;SDS011;22841;50.252;18.688;2022-08-21T04:10:02;26.98;;;15.32;;
36923;SDS011;22841;50.252;18.688;2022-08-21T04:12:29;41.63;;;19.90;;
36923;SDS011;22841;50.252;18.688;2022-08-21T04:14:55;31.00;;;19.30;;
36923;SDS011;22841;50.252;18.688;2022-08-21T04:17:22;39.15;;;22.17;;
36923;SDS011;22841;50.252;18.688;2022-08-21T04:19:48;44.72;;;24.70;;
36923;SDS011;22841;50.252;18.688;2022-08-21T04:22:15;52.58;;;25.42;;
36923;SDS011;22841;50.252;18.688;2022-08-21T04:24:41;64.30;;;30.58;;
36923;SDS011;22841;50.252;18.688;2022-08-21T04:27:07;75.38;;;30.40;;
36923;SDS011;22841;50.252;18.688;2022-08-21T04:29:33;62.55;;;33.22;;
36923;SDS011;22841;50.252;18.688;2022-08-21T04:31:59;163.68;;;42.55;;
36923;SDS011;22841;50.252;18.688;2022-08-21T04:34:25;64.13;;;31.83;;
36923;SDS011;22841;50.252;18.688;2022-08-21T04:36:51;57.40;;;29.63;;
36923;SDS011;22841;50.252;18.688;2022-08-21T04:39:17;72.82;;;35.65;;
36923;SDS011;22841;50.252;18.688;2022-08-21T04:41:43;62.05;;;35.30;;
36923;SDS011;22841;50.252;18.688;2022-08-21T04:44:09;80.25;;;35.35;;
36923;SDS011;22841;50.252;18.688;2022-08-21T04:46:35;131.68;;;38.53;;
36923;SDS011;22841;50.252;18.688;2022-08-21T04:49:01;72.15;;;33.60;;
36923;SDS011;22841;50.252;18.688;2022-08-21T04:51:29;90.60;;;34.33;;
36923;SDS011;22841;50.252;18.688;2022-08-21T04:54:02;125.60;;;35.37;;
36923;SDS011;22841;50.252;18.688;2022-08-21T04:56:40;83.85;;;29.52;;
36923;SDS011;22841;50.252;18.688;2022-08-21T04:59:12;71.75;;;26.10;;
36923;SDS011;22841;50.252;18.688;2022-08-21T05:01:52;97.75;;;27.38;;
36923;SDS011;22841;50.252;18.688;2022-08-21T05:04:22;68.55;;;24.98;;
36923;SDS011;22841;50.252;18.688;2022-08-21T05:06:52;31.67;;;14.68;;
36923;SDS011;22841;50.252;18.688;2022-08-21T05:09:21;13.93;;;9.77;;
36923;SDS011;22841;50.252;18.688;2022-08-21T05:11:48;21.40;;;8.93;;
36923;SDS011;22841;50.252;18.688;2022-08-21T05:14:16;14.15;;;8.82;;
36923;SDS011;22841;50.252;18.688;2022-08-21T05:16:43;24.48;;;8.70;;
36923;SDS011;22841;50.252;18.688;2022-08-21T05:19:09;16.10;;;8.88;;
36923;SDS011;22841;50.252;18.688;2022-08-21T05:21:37;19.85;;;9.02;;
36923;SDS011;22841;50.252;18.688;2022-08-21T05:24:06;18.70;;;8.18;;
36923;SDS011;22841;50.252;18.688;2022-08-21T05:26:33;21.45;;;9.02;;
36923;SDS011;22841;50.252;18.688;2022-08-21T05:28:59;16.85;;;9.05;;
36923;SDS011;22841;50.252;18.688;2022-08-21T05:31:25;20.13;;;9.77;;
36923;SDS011;22841;50.252;18.688;2022-08-21T05:33:51;14.20;;;9.35;;
36923;SDS011;22841;50.252;18.688;2022-08-21T05:36:18;17.77;;;9.38;;
36923;SDS011;22841;50.252;18.688;2022-08-21T05:38:44;19.70;;;8.93;;
36923;SDS011;22841;50.252;18.688;2022-08-21T05:41:11;20.08;;;8.48;;
36923;SDS011;22841;50.252;18.688;2022-08-21T05:43:37;24.15;;;13.10;;
36923;SDS011;22841;50.252;18.688;2022-08-21T05:46:03;14.15;;;7.35;;
36923;SDS011;22841;50.252;18.688;2022-08-21T05:48:31;7.95;;;4.03;;
36923;SDS011;22841;50.252;18.688;2022-08-21T05:50:57;8.82;;;4.53;;
36923;SDS011;22841;50.252;18.688;2022-08-21T05:53:29;8.32;;;3.35;;
36923;SDS011;22841;50.252;18.688;2022-08-21T05:55:55;7.07;;;3.20;;
36923;SDS011;22841;50.252;18.688;2022-08-21T05:58:21;15.43;;;3.92;;
36923;SDS011;22841;50.252;18.688;2022-08-21T06:00:49;10.32;;;3.42;;
36923;SDS011;22841;50.252;18.688;2022-08-21T06:03:20;6.90;;;3.63;;
36923;SDS011;22841;50.252;18.688;2022-08-21T06:05:48;7.68;;;3.15;;
36923;SDS011;22841;50.252;18.688;2022-08-21T06:08:16;7.63;;;2.60;;
36923;SDS011;22841;50.252;18.688;2022-08-21T06:10:43;4.68;;;2.50;;
36923;SDS011;22841;50.252;18.688;2022-08-21T06:13:11;5.78;;;2.40;;
36923;SDS011;22841;50.252;18.688;2022-08-21T06:15:38;5.85;;;3.33;;
36923;SDS011;22841;50.252;18.688;2022-08-21T06:18:05;7.22;;;3.17;;
36923;SDS011;22841;50.252;18.688;2022-08-21T06:20:31;6.25;;;2.88;;
36923;SDS011;22841;50.252;18.688;2022-08-21T06:22:59;7.93;;;2.80;;
36923;SDS011;22841;50.252;18.688;2022-08-21T06:25:26;5.85;;;1.92;;
36923;SDS011;22841;50.252;18.688;2022-08-21T06:27:52;3.72;;;2.05;;
36923;SDS011;22841;50.252;18.688;2022-08-21T06:30:18;8.02;;;2.38;;
36923;SDS011;22841;50.252;18.688;2022-08-21T06:32:45;2.88;;;1.92;;
36923;SDS011;22841;50.252;18.688;2022-08-21T06:35:11;2.13;;;1.35;;
36923;SDS011;22841;50.252;18.688;2022-08-21T06:37:37;3.90;;;1.50;;
36923;SDS011;22841;50.252;18.688;2022-08-21T06:40:03;4.53;;;1.35;;
36923;SDS011;22841;50.252;18.688;2022-08-21T06:42:30;3.38;;;1.33;;
36923;SDS011;22841;50.252;18.688;2022-08-21T06:44:57;4.40;;;0.90;;
36923;SDS011;22841;50.252;18.688;2022-08-21T06:47:23;2.50;;;1.30;;
36923;SDS011;22841;50.252;18.688;2022-08-21T06:49:49;2.85;;;1.17;;
36923;SDS011;22841;50.252;18.688;2022-08-21T06:52:15;3.63;;;1.25;;
36923;SDS011;22841;50.252;18.688;2022-08-21T06:54:41;2.05;;;0.90;;
36923;SDS011;22841;50.252;18.688;2022-08-21T06:57:08;1.02;;;0.68;;
36923;SDS011;22841;50.252;18.688;2022-08-21T06:59:34;1.17;;;0.98;;
36923;SDS011;22841;50.252;18.688;2022-08-21T07:02:00;3.92;;;1.65;;
36923;SDS011;22841;50.252;18.688;2022-08-21T07:04:26;1.65;;;1.00;;
36923;SDS011;22841;50.252;18.688;2022-08-21T07:06:52;1.85;;;0.90;;
36923;SDS011;22841;50.252;18.688;2022-08-21T07:09:18;4.47;;;1.15;;
36923;SDS011;22841;50.252;18.688;2022-08-21T07:11:45;3.50;;;0.75;;
36923;SDS011;22841;50.252;18.688;2022-08-21T07:14:15;1.73;;;0.80;;
36923;SDS011;22841;50.252;18.688;2022-08-21T07:16:42;1.98;;;1.10;;
36923;SDS011;22841;50.252;18.688;2022-08-21T07:19:08;5.30;;;0.80;;
36923;SDS011;22841;50.252;18.688;2022-08-21T07:21:34;2.78;;;0.70;;
36923;SDS011;22841;50.252;18.688;2022-08-21T07:24:00;3.50;;;1.00;;
36923;SDS011;22841;50.252;18.688;2022-08-21T07:26:26;5.32;;;1.38;;
36923;SDS011;22841;50.252;18.688;2022-08-21T07:28:52;3.83;;;0.73;;
36923;SDS011;22841;50.252;18.688;2022-08-21T07:31:20;4.38;;;0.90;;
36923;SDS011;22841;50.252;18.688;2022-08-21T07:33:48;1.38;;;0.77;;
36923;SDS011;22841;50.252;18.688;2022-08-21T07:36:14;2.75;;;0.88;;
36923;SDS011;22841;50.252;18.688;2022-08-21T07:38:40;1.23;;;1.05;;
36923;SDS011;22841;50.252;18.688;2022-08-21T07:41:10;4.55;;;0.90;;
36923;SDS011;22841;50.252;18.688;2022-08-21T07:43:42;2.53;;;0.88;;
36923;SDS011;22841;50.252;18.688;2022-08-21T07:46:09;3.00;;;0.85;;
36923;SDS011;22841;50.252;18.688;2022-08-21T07:48:35;0.93;;;0.75;;
36923;SDS011;22841;50.252;18.688;2022-08-21T07:51:02;2.10;;;0.80;;
36923;SDS011;22841;50.252;18.688;2022-08-21T07:53:36;2.58;;;0.73;;
36923;SDS011;22841;50.252;18.688;2022-08-21T07:56:02;4.20;;;1.23;;
36923;SDS011;22841;50.252;18.688;2022-08-21T07:58:30;1.90;;;0.70;;
36923;SDS011;22841;50.252;18.688;2022-08-21T08:00:56;0.75;;;0.75;;
36923;SDS011;22841;50.252;18.688;2022-08-21T08:03:23;4.70;;;1.00;;
36923;SDS011;22841;50.252;18.688;2022-08-21T08:05:49;2.70;;;0.88;;
36923;SDS011;22841;50.252;18.688;2022-08-21T08:08:15;4.25;;;1.52;;
36923;SDS011;22841;50.252;18.688;2022-08-21T08:10:42;4.90;;;3.08;;
36923;SDS011;22841;50.252;18.688;2022-08-21T08:13:09;5.32;;;3.30;;
36923;SDS011;22841;50.252;18.688;2022-08-21T08:15:35;6.13;;;2.75;;
36923;SDS011;22841;50.252;18.688;2022-08-21T08:18:02;5.10;;;2.45;;
36923;SDS011;22841;50.252;18.688;2022-08-21T08:20:28;3.97;;;1.80;;
36923;SDS011;22841;50.252;18.688;2022-08-21T08:22:55;5.13;;;2.72;;
36923;SDS011;22841;50.252;18.688;2022-08-21T08:25:21;2.53;;;1.63;;
36923;SDS011;22841;50.252;18.688;2022-08-21T08:27:49;4.93;;;1.60;;
36923;SDS011;22841;50.252;18.688;2022-08-21T08:30:16;2.72;;;1.80;;
36923;SDS011;22841;50.252;18.688;2022-08-21T08:32:43;7.50;;;3.35;;
36923;SDS011;22841;50.252;18.688;2022-08-21T08:35:10;4.70;;;2.00;;
36923;SDS011;22841;50.252;18.688;2022-08-21T08:37:37;3.42;;;2.00;;
36923;SDS011;22841;50.252;18.688;2022-08-21T08:40:19;3.47;;;1.55;;
36923;SDS011;22841;50.252;18.688;2022-08-21T08:42:56;2.60;;;1.67;;
36923;SDS011;22841;50.252;18.688;2022-08-21T08:45:22;3.78;;;1.88;;
36923;SDS011;22841;50.252;18.688;2022-08-21T08:48:10;4.38;;;2.03;;
36923;SDS011;22841;50.252;18.688;2022-08-21T08:50:49;2.58;;;1.55;;
36923;SDS011;22841;50.252;18.688;2022-08-21T08:53:22;2.67;;;1.85;;
36923;SDS011;22841;50.252;18.688;2022-08-21T08:56:00;3.13;;;1.13;;
36923;SDS011;22841;50.252;18.688;2022-08-21T08:58:32;3.80;;;2.20;;
36923;SDS011;22841;50.252;18.688;2022-08-21T09:01:05;5.53;;;1.50;;
36923;SDS011;22841;50.252;18.688;2022-08-21T09:03:37;1.67;;;1.48;;
36923;SDS011;22841;50.252;18.688;2022-08-21T09:06:11;4.88;;;1.55;;
36923;SDS011;22841;50.252;18.688;2022-08-21T09:11:56;5.28;;;2.40;;
36923;SDS011;22841;50.252;18.688;2022-08-21T09:14:43;4.10;;;2.65;;
36923;SDS011;22841;50.252;18.688;2022-08-21T09:17:19;4.35;;;3.00;;
36923;SDS011;22841;50.252;18.688;2022-08-21T09:20:03;5.85;;;3.00;;
36923;SDS011;22841;50.252;18.688;2022-08-21T09:25:23;3.70;;;2.72;;
36923;SDS011;22841;50.252;18.688;2022-08-21T09:27:52;4.80;;;3.10;;
36923;SDS011;22841;50.252;18.688;2022-08-21T09:30:19;7.18;;;3.20;;
36923;SDS011;22841;50.252;18.688;2022-08-21T09:32:50;6.85;;;4.97;;
36923;SDS011;22841;50.252;18.688;2022-08-21T09:35:18;6.45;;;5.22;;
36923;SDS011;22841;50.252;18.688;2022-08-21T09:37:48;7.90;;;6.15;;
36923;SDS011;22841;50.252;18.688;2022-08-21T09:45:37;7.72;;;6.25;;
36923;SDS011;22841;50.252;18.688;2022-08-21T09:48:11;8.95;;;6.30;;
36923;SDS011;22841;50.252;18.688;2022-08-21T09:50:45;8.52;;;7.57;;
36923;SDS011;22841;50.252;18.688;2022-08-21T09:53:34;12.30;;;7.97;;
36923;SDS011;22841;50.252;18.688;2022-08-21T09:56:04;13.02;;;8.25;;
36923;SDS011;22841;50.252;18.688;2022-08-21T09:58:59;13.00;;;9.68;;
36923;SDS011;22841;50.252;18.688;2022-08-21T10:01:25;23.55;;;10.40;;
36923;SDS011;22841;50.252;18.688;2022-08-21T10:04:07;12.52;;;10.02;;
36923;SDS011;22841;50.252;18.688;2022-08-21T10:06:33;11.65;;;9.10;;
36923;SDS011;22841;50.252;18.688;2022-08-21T10:11:34;12.90;;;9.23;;
36923;SDS011;22841;50.252;18.688;2022-08-21T10:17:01;14.57;;;8.27;;
36923;SDS011;22841;50.252;18.688;2022-08-21T10:28:06;12.20;;;8.50;;
36923;SDS011;22841;50.252;18.688;2022-08-21T10:33:25;7.47;;;6.78;;
36923;SDS011;22841;50.252;18.688;2022-08-21T10:46:45;9.60;;;7.07;;
36923;SDS011;22841;50.252;18.688;2022-08-21T10:49:39;8.93;;;6.55;;
36923;SDS011;22841;50.252;18.688;2022-08-21T10:55:06;6.53;;;4.78;;
36923;SDS011;22841;50.252;18.688;2022-08-21T11:00:22;5.53;;;4.20;;
36923;SDS011;22841;50.252;18.688;2022-08-21T11:03:00;7.68;;;3.95;;
36923;SDS011;22841;50.252;18.688;2022-08-21T11:05:31;6.32;;;2.60;;
36923;SDS011;22841;50.252;18.688;2022-08-21T11:08:11;3.05;;;2.67;;
36923;SDS011;22841;50.252;18.688;2022-08-21T11:13:19;3.20;;;2.05;;
36923;SDS011;22841;50.252;18.688;2022-08-21T11:16:14;2.40;;;2.00;;
36923;SDS011;22841;50.252;18.688;2022-08-21T11:18:49;5.95;;;1.85;;
36923;SDS011;22841;50.252;18.688;2022-08-21T11:21:32;5.03;;;2.08;;
36923;SDS011;22841;50.252;18.688;2022-08-21T11:24:29;2.40;;;2.05;;
36923;SDS011;22841;50.252;18.688;2022-08-21T11:26:59;1.92;;;1.70;;
36923;SDS011;22841;50.252;18.688;2022-08-21T11:29:33;1.80;;;1.70;;
36923;SDS011;22841;50.252;18.688;2022-08-21T11:43:43;1.27;;;1.13;;
36923;SDS011;22841;50.252;18.688;2022-08-21T11:46:17;1.00;;;1.00;;
36923;SDS011;22841;50.252;18.688;2022-08-21T11:51:28;0.95;;;0.85;;
36923;SDS011;22841;50.252;18.688;2022-08-21T11:54:26;1.17;;;0.93;;
36923;SDS011;22841;50.252;18.688;2022-08-21T11:57:17;1.00;;;1.00;;
36923;SDS011;22841;50.252;18.688;2022-08-21T11:59:53;2.95;;;1.23;;
36923;SDS011;22841;50.252;18.688;2022-08-21T12:02:21;1.75;;;1.25;;
36923;SDS011;22841;50.252;18.688;2022-08-21T12:04:54;1.52;;;1.42;;
36923;SDS011;22841;50.252;18.688;2022-08-21T12:10:03;1.40;;;1.30;;
36923;SDS011;22841;50.252;18.688;2022-08-21T12:12:34;2.30;;;1.77;;
36923;SDS011;22841;50.252;18.688;2022-08-21T12:17:58;1.73;;;1.40;;
36923;SDS011;22841;50.252;18.688;2022-08-21T12:21:17;2.08;;;1.40;;
36923;SDS011;22841;50.252;18.688;2022-08-21T12:23:30;2.05;;;1.67;;
36923;SDS011;22841;50.252;18.688;2022-08-21T12:26:00;1.77;;;1.65;;
36923;SDS011;22841;50.252;18.688;2022-08-21T12:28:29;2.30;;;2.03;;
36923;SDS011;22841;50.252;18.688;2022-08-21T12:30:56;4.47;;;1.90;;
36923;SDS011;22841;50.252;18.688;2022-08-21T12:33:24;2.47;;;1.70;;
36923;SDS011;22841;50.252;18.688;2022-08-21T12:36:14;2.05;;;1.95;;
36923;SDS011;22841;50.252;18.688;2022-08-21T12:39:03;3.22;;;2.08;;
36923;SDS011;22841;50.252;18.688;2022-08-21T12:41:48;2.38;;;2.17;;
36923;SDS011;22841;50.252;18.688;2022-08-21T12:44:43;2.10;;;2.00;;
36923;SDS011;22841;50.252;18.688;2022-08-21T12:47:19;6.28;;;2.75;;
36923;SDS011;22841;50.252;18.688;2022-08-21T12:50:11;5.68;;;2.60;;
36923;SDS011;22841;50.252;18.688;2022-08-21T12:52:49;3.85;;;2.55;;
36923;SDS011;22841;50.252;18.688;2022-08-21T12:55:24;4.35;;;2.80;;
36923;SDS011;22841;50.252;18.688;2022-08-21T12:57:53;3.30;;;3.05;;
36923;SDS011;22841;50.252;18.688;2022-08-21T13:00:20;4.97;;;3.13;;
36923;SDS011;22841;50.252;18.688;2022-08-21T13:02:49;3.55;;;2.70;;
36923;SDS011;22841;50.252;18.688;2022-08-21T13:05:35;3.35;;;3.05;;
36923;SDS011;22841;50.252;18.688;2022-08-21T13:08:03;3.85;;;2.90;;
36923;SDS011;22841;50.252;18.688;2022-08-21T13:10:31;3.67;;;3.30;;
36923;SDS011;22841;50.252;18.688;2022-08-21T13:13:08;7.72;;;4.18;;
36923;SDS011;22841;50.252;18.688;2022-08-21T13:15:40;3.70;;;3.20;;
36923;SDS011;22841;50.252;18.688;2022-08-21T13:18:07;5.10;;;3.75;;
36923;SDS011;22841;50.252;18.688;2022-08-21T13:20:44;3.80;;;3.33;;
36923;SDS011;22841;50.252;18.688;2022-08-21T13:23:24;4.53;;;3.63;;
36923;SDS011;22841;50.252;18.688;2022-08-21T13:25:54;4.30;;;3.88;;
36923;SDS011;22841;50.252;18.688;2022-08-21T13:28:21;4.40;;;3.90;;
36923;SDS011;22841;50.252;18.688;2022-08-21T13:30:48;5.50;;;4.00;;
36923;SDS011;22841;50.252;18.688;2022-08-21T13:33:21;4.82;;;4.30;;
36923;SDS011;22841;50.252;18.688;2022-08-21T13:40:51;5.22;;;4.50;;
36923;SDS011;22841;50.252;18.688;2022-08-21T13:43:22;4.28;;;3.95;;
36923;SDS011;22841;50.252;18.688;2022-08-21T13:45:54;4.68;;;4.20;;
36923;SDS011;22841;50.252;18.688;2022-08-21T13:48:22;4.60;;;4.03;;
36923;SDS011;22841;50.252;18.688;2022-08-21T13:50:51;4.65;;;4.10;;
36923;SDS011;22841;50.252;18.688;2022-08-21T13:55:58;6.05;;;5.20;;
36923;SDS011;22841;50.252;18.688;2022-08-21T13:58:26;5.68;;;5.07;;
36923;SDS011;22841;50.252;18.688;2022-08-21T14:00:55;6.05;;;5.25;;
36923;SDS011;22841;50.252;18.688;2022-08-21T14:06:01;7.78;;;6.60;;
36923;SDS011;22841;50.252;18.688;2022-08-21T14:08:37;14.32;;;7.45;;
36923;SDS011;22841;50.252;18.688;2022-08-21T14:11:09;12.30;;;7.30;;
36923;SDS011;22841;50.252;18.688;2022-08-21T14:13:41;10.20;;;6.70;;
36923;SDS011;22841;50.252;18.688;2022-08-21T14:18:45;9.43;;;7.30;;
36923;SDS011;22841;50.252;18.688;2022-08-21T14:21:33;10.52;;;7.72;;
36923;SDS011;22841;50.252;18.688;2022-08-21T14:24:10;11.40;;;8.25;;
36923;SDS011;22841;50.252;18.688;2022-08-21T14:26:53;10.85;;;7.28;;
36923;SDS011;22841;50.252;18.688;2022-08-21T14:29:25;11.52;;;7.93;;
36923;SDS011;22841;50.252;18.688;2022-08-21T14:31:57;9.73;;;7.80;;
36923;SDS011;22841;50.252;18.688;2022-08-21T14:34:26;9.70;;;7.22;;
36923;SDS011;22841;50.252;18.688;2022-08-21T14:36:54;14.68;;;7.57;;
36923;SDS011;22841;50.252;18.688;2022-08-21T14:39:21;11.85;;;9.57;;
36923;SDS011;22841;50.252;18.688;2022-08-21T14:41:47;17.20;;;9.55;;
36923;SDS011;22841;50.252;18.688;2022-08-21T14:44:14;9.35;;;7.10;;
36923;SDS011;22841;50.252;18.688;2022-08-21T14:46:42;11.98;;;7.07;;
36923;SDS011;22841;50.252;18.688;2022-08-21T14:49:08;6.90;;;6.03;;
36923;SDS011;22841;50.252;18.688;2022-08-21T14:51:34;9.10;;;6.22;;
36923;SDS011;22841;50.252;18.688;2022-08-21T14:54:00;13.00;;;6.53;;
36923;SDS011;22841;50.252;18.688;2022-08-21T14:56:26;9.02;;;5.95;;
36923;SDS011;22841;50.252;18.688;2022-08-21T14:58:52;11.52;;;6.57;;
36923;SDS011;22841;50.252;18.688;2022-08-21T15:01:21;8.90;;;5.63;;
36923;SDS011;22841;50.252;18.688;2022-08-21T15:03:47;10.23;;;7.25;;
36923;SDS011;22841;50.252;18.688;2022-08-21T15:06:14;12.55;;;7.78;;
36923;SDS011;22841;50.252;18.688;2022-08-21T15:08:43;7.80;;;6.35;;
36923;SDS011;22841;50.252;18.688;2022-08-21T15:11:11;14.05;;;6.57;;
36923;SDS011;22841;50.252;18.688;2022-08-21T15:13:41;13.00;;;6.57;;
36923;SDS011;22841;50.252;18.688;2022-08-21T15:16:08;15.15;;;6.75;;
36923;SDS011;22841;50.252;18.688;2022-08-21T15:18:36;8.35;;;6.28;;
36923;SDS011;22841;50.252;18.688;2022-08-21T15:21:02;10.48;;;7.15;;
36923;SDS011;22841;50.252;18.688;2022-08-21T15:23:30;16.20;;;6.97;;
36923;SDS011;22841;50.252;18.688;2022-08-21T15:25:56;13.07;;;7.50;;
36923;SDS011;22841;50.252;18.688;2022-08-21T15:28:23;13.43;;;6.88;;
36923;SDS011;22841;50.252;18.688;2022-08-21T15:30:50;10.13;;;7.75;;
36923;SDS011;22841;50.252;18.688;2022-08-21T15:33:17;15.13;;;7.95;;
36923;SDS011;22841;50.252;18.688;2022-08-21T15:35:43;19.92;;;8.93;;
36923;SDS011;22841;50.252;18.688;2022-08-21T15:38:11;14.18;;;8.40;;
36923;SDS011;22841;50.252;18.688;2022-08-21T15:40:38;16.90;;;8.30;;
36923;SDS011;22841;50.252;18.688;2022-08-21T15:43:06;13.68;;;8.93;;
36923;SDS011;22841;50.252;18.688;2022-08-21T15:45:45;14.52;;;9.18;;
36923;SDS011;22841;50.252;18.688;2022-08-21T15:48:11;16.80;;;8.60;;
36923;SDS011;22841;50.252;18.688;2022-08-21T15:50:37;16.42;;;9.55;;
36923;SDS011;22841;50.252;18.688;2022-08-21T15:53:03;14.20;;;9.30;;
36923;SDS011;22841;50.252;18.688;2022-08-21T15:55:29;13.93;;;8.88;;
36923;SDS011;22841;50.252;18.688;2022-08-21T15:57:58;16.52;;;9.10;;
36923;SDS011;22841;50.252;18.688;2022-08-21T16:00:25;15.93;;;8.43;;
36923;SDS011;22841;50.252;18.688;2022-08-21T16:02:53;16.60;;;9.23;;